createdAt,value
2022-10-23T00:00:03.755Z,65.58
2022-10-23T00:04:21.877Z,65.53
2022-10-23T00:08:38.839Z,64.40
2022-10-23T00:12:55.388Z,64.76
2022-10-23T00:17:12.545Z,65.33
2022-10-23T00:21:29.021Z,64.66
2022-10-23T00:25:45.157Z,65.27
2022-10-23T00:30:02.023Z,66.03
2022-10-23T00:34:19.649Z,69.33
2022-10-23T00:38:36.209Z,68.53
2022-10-23T00:42:52.398Z,69.34
2022-10-23T00:47:09.085Z,69.32
2022-10-23T00:51:28.183Z,71.28
2022-10-23T00:55:47.106Z,72.31
2022-10-23T01:00:03.735Z,73.40
2022-10-23T01:04:20.237Z,74.72
2022-10-23T01:08:49.036Z,75.08
2022-10-23T01:13:24.172Z,73.33
2022-10-23T01:18:02.484Z,73.41
2022-10-23T01:22:37.111Z,72.44
2022-10-23T01:27:14.867Z,72.03
2022-10-23T01:31:39.881Z,72.01
2022-10-23T01:36:04.268Z,74.81
2022-10-23T01:40:35.196Z,73.24
2022-10-23T01:45:01.893Z,73.86
2022-10-23T01:49:18.007Z,71.57
2022-10-23T01:53:38.701Z,69.78
2022-10-23T01:57:55.090Z,70.08
2022-10-23T02:02:13.242Z,70.34
2022-10-23T02:06:29.412Z,69.82
2022-10-23T02:10:53.073Z,71.60
2022-10-23T02:15:15.118Z,71.62
2022-10-23T02:19:41.685Z,71.58
2022-10-23T02:24:05.954Z,69.96
2022-10-23T02:28:26.449Z,69.83
2022-10-23T02:32:47.345Z,69.11
2022-10-23T02:37:03.918Z,68.49
2022-10-23T02:41:42.622Z,68.80
2022-10-23T02:46:18.613Z,68.50
2022-10-23T02:50:53.929Z,68.43
2022-10-23T02:55:30.672Z,67.66
2022-10-23T03:00:00.875Z,66.93
2022-10-23T03:04:19.275Z,67.04
2022-10-23T03:08:58.172Z,66.77
2022-10-23T03:13:14.331Z,67.14
2022-10-23T03:17:30.497Z,66.96
2022-10-23T03:21:46.672Z,66.96
2022-10-23T03:26:02.937Z,66.49
2022-10-23T03:30:19.574Z,66.64
2022-10-23T03:34:35.846Z,66.75
2022-10-23T03:38:52.000Z,67.52
2022-10-23T03:43:08.137Z,67.72
2022-10-23T03:47:24.256Z,67.61
2022-10-23T03:51:41.953Z,67.77
2022-10-23T03:55:58.052Z,67.62
2022-10-23T04:00:14.527Z,67.44
2022-10-23T04:04:30.607Z,68.60
2022-10-23T04:08:46.769Z,67.86
2022-10-23T04:13:02.878Z,66.96
2022-10-23T04:17:19.025Z,66.25
2022-10-23T04:21:35.187Z,65.55
2022-10-23T04:25:51.380Z,66.11
2022-10-23T04:30:09.347Z,66.02
2022-10-23T04:34:25.494Z,65.97
2022-10-23T04:38:41.648Z,65.38
2022-10-23T04:42:57.833Z,64.19
2022-10-23T04:47:14.057Z,64.41
2022-10-23T04:51:30.308Z,64.20
2022-10-23T04:55:53.985Z,64.94
2022-10-23T05:00:12.984Z,64.51
2022-10-23T05:04:29.074Z,64.18
2022-10-23T05:08:45.273Z,64.15
2022-10-23T05:13:01.677Z,63.89
2022-10-23T05:17:21.374Z,64.30
2022-10-23T05:21:39.527Z,64.12
2022-10-23T05:25:55.673Z,64.62
2022-10-23T05:30:12.755Z,65.65
2022-10-23T05:34:31.028Z,69.36
2022-10-23T05:38:47.419Z,68.38
2022-10-23T05:43:03.559Z,67.88
2022-10-23T05:47:19.682Z,68.56
2022-10-23T05:51:40.297Z,68.03
2022-10-23T05:55:56.475Z,67.93
2022-10-23T06:00:13.300Z,72.89
2022-10-23T06:04:29.480Z,69.61
2022-10-23T06:08:45.655Z,68.48
2022-10-23T06:13:01.715Z,70.83
2022-10-23T06:17:17.856Z,71.01
2022-10-23T06:21:38.160Z,69.74
2022-10-23T06:25:55.984Z,69.52
2022-10-23T06:30:12.727Z,69.65
2022-10-23T06:34:28.918Z,69.71
2022-10-23T06:38:45.018Z,70.14
2022-10-23T06:43:01.119Z,70.89
2022-10-23T06:51:38.357Z,70.57
2022-10-23T06:55:59.164Z,70.81
2022-10-23T07:00:15.435Z,70.38
2022-10-23T07:04:31.700Z,69.29
2022-10-23T07:08:47.950Z,71.77
2022-10-23T07:13:04.114Z,71.11
2022-10-23T07:17:20.245Z,71.23
2022-10-23T07:21:36.685Z,72.01
2022-10-23T07:25:52.923Z,70.81
2022-10-23T07:30:09.501Z,71.25
2022-10-23T07:34:26.005Z,69.61
2022-10-23T07:38:42.280Z,69.62
2022-10-23T07:42:58.459Z,69.23
2022-10-23T07:47:14.524Z,69.05
2022-10-23T07:51:30.597Z,69.06
2022-10-23T07:56:17.891Z,68.44
2022-10-23T08:00:33.999Z,66.87
2022-10-23T08:04:50.972Z,67.21
2022-10-23T08:09:07.288Z,67.57
2022-10-23T08:13:23.759Z,67.03
2022-10-23T08:17:40.046Z,66.24
2022-10-23T08:21:57.555Z,65.55
2022-10-23T08:26:13.939Z,65.16
2022-10-23T08:30:30.125Z,64.03
2022-10-23T08:34:46.659Z,62.75
2022-10-23T08:39:02.866Z,61.96
2022-10-23T08:43:42.041Z,59.78
2022-10-23T08:48:04.572Z,58.40
2022-10-23T08:53:09.013Z,63.18
2022-10-23T08:57:33.438Z,60.61
2022-10-23T09:02:13.701Z,60.74
2022-10-23T09:06:35.959Z,61.58
2022-10-23T09:10:59.292Z,60.45
2022-10-23T09:15:15.375Z,56.31
2022-10-23T09:19:32.408Z,56.57
2022-10-23T09:23:48.699Z,55.59
2022-10-23T09:28:05.840Z,56.16
2022-10-23T09:32:38.220Z,53.72
2022-10-23T09:37:00.895Z,53.06
2022-10-23T09:41:27.869Z,54.02
2022-10-23T09:45:44.135Z,54.66
2022-10-23T09:50:00.363Z,54.10
2022-10-23T09:54:17.043Z,55.64
2022-10-23T09:58:39.590Z,53.45
2022-10-23T10:03:04.418Z,53.32
2022-10-23T10:07:33.476Z,50.78
2022-10-23T10:11:55.534Z,51.87
2022-10-23T10:16:27.344Z,49.98
2022-10-23T10:21:11.276Z,48.92
2022-10-23T10:25:37.981Z,47.37
2022-10-23T10:30:18.720Z,49.04
2022-10-23T10:34:38.020Z,47.80
2022-10-23T10:38:59.967Z,47.21
2022-10-23T10:43:25.916Z,46.14
2022-10-23T10:48:04.287Z,45.77
2022-10-23T10:52:29.842Z,44.18
2022-10-23T10:56:47.984Z,46.94
2022-10-23T11:01:14.209Z,45.60
2022-10-23T11:05:34.940Z,45.70
2022-10-23T11:09:51.935Z,45.30
2022-10-23T11:14:34.948Z,45.11
2022-10-23T11:19:18.367Z,43.29
2022-10-23T11:23:40.254Z,44.48
2022-10-23T11:28:15.539Z,41.48
2022-10-23T11:32:49.838Z,42.05
2022-10-23T11:37:07.071Z,41.82
2022-10-23T11:41:27.144Z,39.21
2022-10-23T11:45:43.582Z,39.90
2022-10-23T11:50:09.083Z,38.31
2022-10-23T11:54:27.469Z,38.70
2022-10-23T11:58:56.711Z,39.71
2022-10-23T12:03:23.192Z,37.53
2022-10-23T12:07:41.930Z,38.58
2022-10-23T12:12:09.624Z,40.31
2022-10-23T12:16:36.676Z,37.93
2022-10-23T12:21:03.490Z,34.59
2022-10-23T12:25:33.930Z,34.88
2022-10-23T12:30:08.865Z,35.80
2022-10-23T12:34:34.903Z,36.17
2022-10-23T12:38:51.140Z,37.91
2022-10-23T12:43:24.840Z,38.33
2022-10-23T12:47:41.183Z,40.51
2022-10-23T12:52:02.799Z,41.58
2022-10-23T12:56:19.217Z,41.47
2022-10-23T13:00:35.395Z,41.63
2022-10-23T13:04:53.840Z,39.98
2022-10-23T13:09:20.405Z,40.89
2022-10-23T13:13:36.895Z,42.40
2022-10-23T13:17:58.771Z,42.98
2022-10-23T13:22:21.978Z,43.10
2022-10-23T13:26:45.416Z,43.77
2022-10-23T13:31:13.727Z,43.93
2022-10-23T13:35:29.862Z,44.51
2022-10-23T13:39:46.238Z,43.41
2022-10-23T13:44:02.614Z,43.35
2022-10-23T13:48:19.767Z,41.71
2022-10-23T13:52:35.897Z,42.52
2022-10-23T13:56:52.948Z,40.99
2022-10-23T14:01:17.319Z,40.18
2022-10-23T14:05:33.708Z,40.08
2022-10-23T14:09:50.710Z,41.16
2022-10-23T14:14:07.330Z,40.44
2022-10-23T14:18:23.686Z,41.53
2022-10-23T14:22:39.758Z,40.67
2022-10-23T14:26:57.716Z,39.82
2022-10-23T14:31:16.844Z,40.44
2022-10-23T14:35:32.994Z,41.11
2022-10-23T14:39:50.299Z,42.63
2022-10-23T14:44:06.778Z,41.82
2022-10-23T14:48:25.863Z,42.83
2022-10-23T14:52:42.464Z,45.34
2022-10-23T14:56:58.662Z,43.75
2022-10-23T15:01:14.930Z,45.09
2022-10-23T15:05:31.283Z,45.24
2022-10-23T15:09:47.522Z,45.72
2022-10-23T15:14:03.753Z,45.52
2022-10-23T15:18:21.709Z,45.33
2022-10-23T15:22:37.890Z,46.46
2022-10-23T15:26:54.106Z,47.31
2022-10-23T15:31:30.683Z,47.74
2022-10-23T15:35:47.041Z,50.08
2022-10-23T15:40:03.524Z,51.38
2022-10-23T15:44:21.640Z,51.58
2022-10-23T15:48:37.771Z,51.81
2022-10-23T15:52:53.971Z,52.09
2022-10-23T15:57:11.171Z,52.24
2022-10-23T16:01:27.987Z,52.36
2022-10-23T16:05:44.177Z,51.79
2022-10-23T16:10:00.513Z,52.42
2022-10-23T16:14:17.719Z,52.58
2022-10-23T16:18:33.787Z,52.69
2022-10-23T16:22:49.912Z,51.58
2022-10-23T16:27:06.439Z,51.97
2022-10-23T16:31:25.930Z,52.88
2022-10-23T16:35:42.072Z,52.14
2022-10-23T16:39:58.871Z,52.31
2022-10-23T16:44:15.003Z,52.33
2022-10-23T16:48:31.605Z,52.99
2022-10-23T16:52:49.117Z,53.22
2022-10-23T16:57:07.113Z,53.47
2022-10-23T17:01:26.681Z,53.52
2022-10-23T17:05:43.045Z,54.29
2022-10-23T17:09:59.444Z,53.94
2022-10-23T17:14:19.926Z,55.02
2022-10-23T17:18:39.876Z,55.31
2022-10-23T17:22:59.896Z,54.87
2022-10-23T17:27:16.126Z,54.21
2022-10-23T17:31:35.360Z,55.02
2022-10-23T17:35:52.597Z,54.85
2022-10-23T17:40:09.315Z,54.53
2022-10-23T17:44:25.524Z,55.18
2022-10-23T17:48:43.996Z,54.92
2022-10-23T17:53:00.199Z,54.72
2022-10-23T17:57:16.355Z,55.78
2022-10-23T18:01:32.891Z,55.86
2022-10-23T18:05:49.279Z,56.44
2022-10-23T18:10:06.240Z,55.61
2022-10-23T18:14:25.113Z,56.15
2022-10-23T18:18:51.879Z,55.99
2022-10-23T18:23:08.466Z,55.83
2022-10-23T18:27:24.761Z,55.92
2022-10-23T18:31:41.682Z,56.00
2022-10-23T18:35:57.851Z,56.05
2022-10-23T18:40:14.170Z,56.04
2022-10-23T18:44:30.645Z,56.70
2022-10-23T18:48:47.664Z,56.70
2022-10-23T18:53:04.240Z,55.61
2022-10-23T18:57:20.417Z,55.71
2022-10-23T19:01:37.135Z,56.78
2022-10-23T19:05:54.004Z,56.17
2022-10-23T19:10:12.282Z,56.80
2022-10-23T19:14:30.195Z,56.72
2022-10-23T19:18:56.061Z,56.28
2022-10-23T19:23:15.228Z,56.76
2022-10-23T19:27:32.341Z,57.65
2022-10-23T19:31:49.490Z,55.82
2022-10-23T19:36:11.174Z,55.74
2022-10-23T19:40:30.227Z,55.97
2022-10-23T19:44:46.390Z,56.32
2022-10-23T19:49:02.712Z,56.88
2022-10-23T19:53:19.293Z,56.65
2022-10-23T19:57:35.888Z,56.49
2022-10-23T20:01:52.174Z,56.88
2022-10-23T20:06:13.562Z,56.95
2022-10-23T20:10:30.111Z,57.04
2022-10-23T20:14:46.566Z,57.76
2022-10-23T20:19:07.364Z,57.72
2022-10-23T20:23:23.590Z,58.42
2022-10-23T20:27:39.940Z,58.27
2022-10-23T20:31:56.177Z,57.79
2022-10-23T20:36:26.970Z,57.67
2022-10-23T20:40:43.163Z,57.41
2022-10-23T20:44:59.392Z,57.46
2022-10-23T20:49:16.093Z,58.08
2022-10-23T20:53:32.441Z,58.67
2022-10-23T20:57:48.632Z,58.71
2022-10-23T21:02:05.050Z,58.40
2022-10-23T21:06:21.256Z,59.03
2022-10-23T21:10:44.379Z,58.80
2022-10-23T21:15:00.482Z,59.33
2022-10-23T21:19:16.763Z,58.83
2022-10-23T21:23:32.891Z,60.39
2022-10-23T21:27:49.023Z,60.33
2022-10-23T21:32:05.312Z,60.09
2022-10-23T21:36:23.821Z,61.77
2022-10-23T21:40:39.917Z,62.20
2022-10-23T21:44:56.110Z,61.97
2022-10-23T21:49:12.288Z,61.75
2022-10-23T21:53:29.305Z,61.68
2022-10-23T21:57:45.494Z,60.70
2022-10-23T22:02:01.758Z,61.26
2022-10-23T22:06:24.149Z,62.11
2022-10-23T22:10:40.399Z,61.45
2022-10-23T22:14:56.626Z,61.72
2022-10-23T22:19:14.486Z,61.69
2022-10-23T22:23:30.856Z,61.24
2022-10-23T22:27:47.087Z,61.69
2022-10-23T22:32:03.430Z,61.07
2022-10-23T22:36:20.257Z,61.45
2022-10-23T22:40:43.036Z,62.31
2022-10-23T22:45:01.874Z,62.51
2022-10-23T22:49:17.996Z,62.07
2022-10-23T22:53:34.588Z,62.10
2022-10-23T22:57:50.948Z,61.83
2022-10-23T23:02:07.119Z,62.51
2022-10-23T23:06:23.858Z,61.17
2022-10-23T23:10:40.759Z,61.12
2022-10-23T23:14:59.113Z,61.72
2022-10-23T23:19:15.259Z,61.92
2022-10-23T23:23:31.948Z,61.79
2022-10-23T23:27:48.870Z,61.60
2022-10-23T23:32:06.393Z,61.51
2022-10-23T23:36:25.178Z,61.88
2022-10-23T23:40:41.684Z,61.82
2022-10-23T23:45:03.132Z,63.35
2022-10-23T23:49:29.600Z,63.04
2022-10-23T23:53:45.772Z,62.71
2022-10-23T23:58:02.278Z,63.33
